createdAt,value
2022-12-26T00:01:36.808Z,98131.59
2022-12-26T00:04:05.288Z,98125.44
2022-12-26T00:06:33.901Z,98124.55
2022-12-26T00:09:04.563Z,98119.59
2022-12-26T00:11:33.346Z,98121.05
2022-12-26T00:14:11.299Z,98132.02
2022-12-26T00:16:44.091Z,98133.94
2022-12-26T00:19:12.879Z,98131.27
2022-12-26T00:21:41.055Z,98133.13
2022-12-26T00:24:11.938Z,98125.77
2022-12-26T00:26:39.833Z,98119.34
2022-12-26T00:29:07.778Z,98130.85
2022-12-26T00:31:36.127Z,98140.09
2022-12-26T00:34:04.059Z,98140.86
2022-12-26T00:36:33.682Z,98133.98
2022-12-26T00:39:03.140Z,98117.89
2022-12-26T00:41:31.586Z,98105.42
2022-12-26T00:43:59.602Z,98107.63
2022-12-26T00:46:28.222Z,98105.01
2022-12-26T00:48:56.465Z,98103.96
2022-12-26T00:51:24.276Z,98108.08
2022-12-26T00:53:52.280Z,98105.40
2022-12-26T00:56:20.181Z,98109.89
2022-12-26T00:58:48.173Z,98107.27
2022-12-26T01:01:20.463Z,98106.70
2022-12-26T01:03:49.916Z,98107.67
2022-12-26T01:06:18.763Z,98101.82
2022-12-26T01:08:46.672Z,98100.39
2022-12-26T01:11:16.365Z,98098.52
2022-12-26T01:13:44.241Z,98089.23
2022-12-26T01:16:12.174Z,98080.55
2022-12-26T01:18:40.137Z,98062.35
2022-12-26T01:21:10.647Z,98057.53
2022-12-26T01:23:38.485Z,98056.23
2022-12-26T01:26:19.035Z,98049.48
2022-12-26T01:28:49.869Z,98038.71
2022-12-26T01:31:18.249Z,98035.22
2022-12-26T01:33:46.906Z,98040.25
2022-12-26T01:36:16.418Z,98041.16
2022-12-26T01:38:45.505Z,98042.73
2022-12-26T01:41:16.895Z,98041.23
2022-12-26T01:43:58.474Z,98037.41
2022-12-26T01:46:31.933Z,98033.66
2022-12-26T01:49:13.131Z,98033.97
2022-12-26T01:51:46.390Z,98046.29
2022-12-26T01:54:40.773Z,98069.92
2022-12-26T01:57:09.901Z,98066.55
2022-12-26T01:59:41.835Z,98068.34
2022-12-26T02:02:10.530Z,98074.33
2022-12-26T02:05:02.301Z,98069.54
2022-12-26T02:07:32.928Z,98065.40
2022-12-26T02:10:01.042Z,98061.57
2022-12-26T02:12:34.089Z,98058.98
2022-12-26T02:15:14.127Z,98061.95
2022-12-26T02:17:43.369Z,98071.39
2022-12-26T02:20:25.045Z,98080.02
2022-12-26T02:23:23.908Z,98066.69
2022-12-26T02:26:13.630Z,98058.48
2022-12-26T02:29:19.234Z,98054.77
2022-12-26T02:31:52.521Z,98056.45
2022-12-26T02:34:34.233Z,98052.64
2022-12-26T02:37:14.133Z,98048.52
2022-12-26T02:40:19.610Z,98042.71
2022-12-26T02:42:59.634Z,98041.50
2022-12-26T02:46:08.302Z,98040.08
2022-12-26T02:49:04.935Z,98033.36
2022-12-26T02:52:07.057Z,98033.04
2022-12-26T02:55:08.809Z,98040.98
2022-12-26T02:58:42.132Z,98044.58
2022-12-26T03:01:52.574Z,98038.38
2022-12-26T03:04:41.570Z,98035.77
2022-12-26T03:07:43.811Z,98024.75
2022-12-26T03:10:39.009Z,98022.95
2022-12-26T03:13:27.355Z,98026.55
2022-12-26T03:16:22.583Z,98024.29
2022-12-26T03:18:58.035Z,98026.92
2022-12-26T03:21:33.952Z,98022.19
2022-12-26T03:24:01.908Z,98023.01
2022-12-26T03:26:41.928Z,98021.52
2022-12-26T03:29:35.076Z,98015.27
2022-12-26T03:32:06.617Z,98007.26
2022-12-26T03:34:42.879Z,98012.84
2022-12-26T03:37:47.688Z,98007.64
2022-12-26T03:40:41.879Z,98009.69
2022-12-26T03:44:05.433Z,98013.40
2022-12-26T03:47:01.733Z,98008.41
2022-12-26T03:49:53.091Z,98001.30
2022-12-26T03:53:02.034Z,98003.83
2022-12-26T03:56:04.214Z,98012.46
2022-12-26T03:59:05.701Z,98019.14
2022-12-26T04:01:56.217Z,98021.55
2022-12-26T04:04:46.022Z,98019.61
2022-12-26T04:07:56.282Z,98015.58
2022-12-26T04:10:52.516Z,98017.80
2022-12-26T04:13:40.792Z,98009.55
2022-12-26T04:16:45.367Z,98008.27
2022-12-26T04:19:26.141Z,98014.93
2022-12-26T04:22:28.394Z,98015.70
2022-12-26T04:25:48.530Z,98020.19
2022-12-26T04:28:40.253Z,98020.86
2022-12-26T04:31:36.608Z,98025.08
2022-12-26T04:34:32.204Z,98025.46
2022-12-26T04:37:22.828Z,98028.21
2022-12-26T04:40:13.353Z,98036.16
2022-12-26T04:43:46.769Z,98037.83
2022-12-26T04:45:52.147Z,98041.30
2022-12-26T04:48:38.744Z,98044.05
2022-12-26T04:51:06.574Z,98042.77
2022-12-26T04:53:34.425Z,98035.95
2022-12-26T04:56:02.286Z,98031.98
2022-12-26T04:58:30.295Z,98028.32
2022-12-26T05:01:18.300Z,98029.80
2022-12-26T05:04:05.349Z,98023.92
2022-12-26T05:06:51.806Z,98025.86
2022-12-26T05:09:35.945Z,98029.17
2022-12-26T05:12:04.947Z,98031.66
2022-12-26T05:14:36.016Z,98031.02
2022-12-26T05:17:24.370Z,98028.48
2022-12-26T05:20:12.097Z,98020.30
2022-12-26T05:23:01.922Z,98014.40
2022-12-26T05:25:53.381Z,98007.44
2022-12-26T05:28:40.650Z,97995.30
2022-12-26T05:31:15.306Z,97982.70
2022-12-26T05:34:02.111Z,97976.19
2022-12-26T05:36:51.638Z,97985.79
2022-12-26T05:39:20.033Z,97994.60
2022-12-26T05:41:48.426Z,97986.17
2022-12-26T05:44:16.402Z,97989.21
2022-12-26T05:46:44.486Z,97989.68
2022-12-26T05:49:13.086Z,97988.39
2022-12-26T05:51:41.200Z,97989.44
2022-12-26T05:54:09.183Z,97990.41
2022-12-26T05:56:37.102Z,97993.23
2022-12-26T05:59:04.992Z,97996.42
2022-12-26T06:01:32.941Z,97994.71
2022-12-26T06:04:01.419Z,97993.23
2022-12-26T06:06:29.359Z,97995.24
2022-12-26T06:08:57.524Z,97992.29
2022-12-26T06:11:26.983Z,97985.83
2022-12-26T06:13:55.936Z,97987.11
2022-12-26T06:16:24.029Z,97987.50
2022-12-26T06:18:52.162Z,97989.11
2022-12-26T06:21:21.787Z,97990.73
2022-12-26T06:23:50.476Z,97991.27
2022-12-26T06:26:18.723Z,97992.98
2022-12-26T06:28:47.647Z,97993.17
2022-12-26T06:31:21.492Z,97991.95
2022-12-26T06:33:50.727Z,97994.86
2022-12-26T06:36:21.191Z,97997.88
2022-12-26T06:38:49.913Z,98002.45
2022-12-26T06:41:19.901Z,97998.50
2022-12-26T06:43:49.044Z,97993.75
2022-12-26T06:46:20.058Z,97993.69
2022-12-26T06:48:48.298Z,97992.38
2022-12-26T06:51:19.500Z,98001.70
2022-12-26T06:53:48.892Z,97996.23
2022-12-26T06:56:27.479Z,97995.23
2022-12-26T06:58:57.263Z,97987.66
2022-12-26T07:01:26.908Z,97986.99
2022-12-26T07:03:55.842Z,97989.78
2022-12-26T07:06:35.067Z,97990.40
2022-12-26T07:09:07.364Z,97982.77
2022-12-26T07:11:38.392Z,97976.20
2022-12-26T07:14:07.158Z,97975.97
2022-12-26T07:16:36.974Z,97983.05
2022-12-26T07:19:09.046Z,97981.67
2022-12-26T07:21:40.850Z,97977.27
2022-12-26T07:24:18.717Z,97977.48
2022-12-26T07:26:47.553Z,97981.43
2022-12-26T07:29:16.206Z,97977.70
2022-12-26T07:31:44.534Z,97986.99
2022-12-26T07:34:12.453Z,97977.06
2022-12-26T07:36:41.417Z,97979.31
2022-12-26T07:39:09.334Z,97976.77
2022-12-26T07:42:13.362Z,97981.10
2022-12-26T07:44:42.135Z,97976.64
2022-12-26T07:47:10.061Z,97978.34
2022-12-26T07:49:37.999Z,97973.44
2022-12-26T07:52:05.979Z,97976.36
2022-12-26T07:54:33.955Z,97972.80
2022-12-26T07:57:29.629Z,97972.19
2022-12-26T07:59:53.145Z,97966.91
2022-12-26T08:02:21.678Z,97970.71
2022-12-26T08:04:50.053Z,97972.45
2022-12-26T08:07:17.921Z,97973.10
2022-12-26T08:09:46.010Z,97970.95
2022-12-26T08:12:13.901Z,97962.66
2022-12-26T08:14:42.091Z,97960.16
2022-12-26T08:17:10.066Z,97960.30
2022-12-26T08:19:38.407Z,97956.34
2022-12-26T08:22:06.383Z,97949.64
2022-12-26T08:24:34.244Z,97947.23
2022-12-26T08:27:02.053Z,97944.03
2022-12-26T08:29:29.924Z,97940.08
2022-12-26T08:31:57.904Z,97942.83
2022-12-26T08:34:25.823Z,97947.16
2022-12-26T08:36:53.567Z,97949.67
2022-12-26T08:39:21.537Z,97950.29
2022-12-26T08:41:49.378Z,97940.52
2022-12-26T08:44:27.219Z,97948.45
2022-12-26T08:46:55.870Z,97943.24
2022-12-26T08:49:23.792Z,97937.73
2022-12-26T08:51:53.801Z,97938.45
2022-12-26T08:54:21.761Z,97938.73
2022-12-26T08:56:49.574Z,97930.95
2022-12-26T08:59:17.387Z,97928.20
2022-12-26T09:01:45.467Z,97931.38
2022-12-26T09:04:13.835Z,97930.77
2022-12-26T09:06:42.043Z,97929.65
2022-12-26T09:09:12.073Z,97925.25
2022-12-26T09:11:41.525Z,97921.16
2022-12-26T09:14:10.562Z,97917.55
2022-12-26T09:16:50.397Z,97914.96
2022-12-26T09:19:20.793Z,97913.05
2022-12-26T09:22:10.100Z,97905.11
2022-12-26T09:24:38.050Z,97903.95
2022-12-26T09:27:05.995Z,97896.36
2022-12-26T09:29:36.153Z,97890.79
2022-12-26T09:32:04.952Z,97894.45
2022-12-26T09:34:32.824Z,97895.71
2022-12-26T09:37:00.760Z,97891.92
2022-12-26T09:39:28.571Z,97887.44
2022-12-26T09:42:30.326Z,97892.27
2022-12-26T09:45:15.439Z,97900.72
2022-12-26T09:47:57.497Z,97895.10
2022-12-26T09:50:39.618Z,97894.92
2022-12-26T09:53:29.604Z,97886.31
2022-12-26T09:56:02.564Z,97885.58
2022-12-26T09:58:35.662Z,97888.89
2022-12-26T10:01:10.236Z,97892.09
2022-12-26T10:03:43.283Z,97890.23
2022-12-26T10:06:22.454Z,97893.35
2022-12-26T10:09:09.091Z,97893.73
2022-12-26T10:11:39.992Z,97889.60
2022-12-26T10:14:25.885Z,97889.92
2022-12-26T10:17:10.885Z,97891.30
2022-12-26T10:19:44.198Z,97898.82
2022-12-26T10:22:47.485Z,97901.20
2022-12-26T10:25:23.065Z,97901.41
2022-12-26T10:27:52.217Z,97909.08
2022-12-26T10:30:41.881Z,97906.62
2022-12-26T10:33:17.650Z,97897.83
2022-12-26T10:35:47.754Z,97889.80
2022-12-26T10:38:33.985Z,97889.72
2022-12-26T10:41:33.275Z,97892.08
2022-12-26T10:44:02.324Z,97887.79
2022-12-26T10:46:41.674Z,97886.38
2022-12-26T10:49:16.529Z,97890.54
2022-12-26T10:51:45.214Z,97900.30
2022-12-26T10:54:18.033Z,97897.41
2022-12-26T10:56:49.574Z,97894.17
2022-12-26T10:59:21.461Z,97892.65
2022-12-26T11:01:50.391Z,97897.27
2022-12-26T11:04:44.577Z,97892.25
2022-12-26T11:07:13.014Z,97887.89
2022-12-26T11:09:45.844Z,97892.02
2022-12-26T11:12:31.178Z,97897.11
2022-12-26T11:15:18.731Z,97881.09
2022-12-26T11:17:50.782Z,97883.62
2022-12-26T11:20:26.964Z,97879.92
2022-12-26T11:23:33.753Z,97883.42
2022-12-26T11:26:02.050Z,97887.80
2022-12-26T11:28:36.276Z,97889.45
2022-12-26T11:31:07.217Z,97885.52
2022-12-26T11:33:46.806Z,97888.30
2022-12-26T11:36:23.986Z,97885.89
2022-12-26T11:39:02.333Z,97888.95
2022-12-26T11:41:33.397Z,97882.91
2022-12-26T11:44:10.677Z,97875.71
2022-12-26T11:47:08.118Z,97874.39
2022-12-26T11:49:48.255Z,97880.19
2022-12-26T11:52:34.943Z,97883.42
2022-12-26T11:55:27.023Z,97879.62
2022-12-26T11:57:58.914Z,97875.66
2022-12-26T12:00:27.953Z,97869.11
2022-12-26T12:02:55.819Z,97860.27
2022-12-26T12:05:38.963Z,97858.21
2022-12-26T12:08:31.530Z,97853.70
2022-12-26T12:11:13.837Z,97849.27
2022-12-26T12:13:44.818Z,97854.70
2022-12-26T12:16:24.938Z,97856.72
2022-12-26T12:19:23.523Z,97855.68
2022-12-26T12:22:23.431Z,97859.39
2022-12-26T12:25:23.351Z,97850.27
2022-12-26T12:28:29.916Z,97850.41
2022-12-26T12:31:00.758Z,97846.21
2022-12-26T12:33:37.582Z,97843.04
2022-12-26T12:36:10.690Z,97844.34
2022-12-26T12:38:56.307Z,97845.27
2022-12-26T12:42:01.047Z,97839.55
2022-12-26T12:44:57.143Z,97834.02
2022-12-26T12:47:44.958Z,97839.96
2022-12-26T12:50:44.155Z,97841.71
2022-12-26T12:53:28.105Z,97835.06
2022-12-26T12:56:41.937Z,97839.47
2022-12-26T12:59:19.269Z,97834.98
2022-12-26T13:01:53.133Z,97837.09
2022-12-26T13:04:27.395Z,97839.45
2022-12-26T13:07:07.662Z,97840.50
2022-12-26T13:09:48.114Z,97841.63
2022-12-26T13:12:21.890Z,97847.23
2022-12-26T13:14:59.748Z,97846.06
2022-12-26T13:17:46.489Z,97847.70
2022-12-26T13:20:21.981Z,97842.48
2022-12-26T13:23:14.823Z,97840.09
2022-12-26T13:25:47.379Z,97835.13
2022-12-26T13:28:25.260Z,97833.06
2022-12-26T13:30:55.132Z,97834.95
2022-12-26T13:33:23.432Z,97832.46
2022-12-26T13:35:54.218Z,97831.69
2022-12-26T13:38:24.316Z,97828.10
2022-12-26T13:41:22.960Z,97827.10
2022-12-26T13:44:07.990Z,97828.52
2022-12-26T13:46:42.013Z,97825.89
2022-12-26T13:49:38.899Z,97823.00
2022-12-26T13:52:16.171Z,97826.88
2022-12-26T13:54:47.196Z,97832.22
2022-12-26T13:57:37.372Z,97828.58
2022-12-26T14:00:10.003Z,97823.15
2022-12-26T14:03:20.983Z,97821.19
2022-12-26T14:06:31.110Z,97820.60
2022-12-26T14:09:12.406Z,97825.86
2022-12-26T14:11:45.890Z,97826.31
2022-12-26T14:14:26.259Z,97819.34
2022-12-26T14:16:59.317Z,97815.19
2022-12-26T14:19:36.532Z,97812.41
2022-12-26T14:22:30.495Z,97820.58
2022-12-26T14:25:04.560Z,97827.84
2022-12-26T14:27:43.590Z,97827.85
2022-12-26T14:30:29.182Z,97822.33
2022-12-26T14:33:34.618Z,97821.69
2022-12-26T14:36:08.206Z,97824.02
2022-12-26T14:38:36.056Z,97820.25
2022-12-26T14:41:04.209Z,97823.65
2022-12-26T14:43:36.122Z,97822.95
2022-12-26T14:46:25.330Z,97821.95
2022-12-26T14:48:57.593Z,97821.89
2022-12-26T14:51:32.417Z,97819.74
2022-12-26T14:54:35.054Z,97823.46
2022-12-26T14:57:42.295Z,97818.13
2022-12-26T15:00:27.302Z,97820.89
2022-12-26T15:03:04.522Z,97824.73
2022-12-26T15:05:39.049Z,97820.43
2022-12-26T15:08:28.619Z,97815.23
2022-12-26T15:11:32.159Z,97816.23
2022-12-26T15:14:08.656Z,97816.36
2022-12-26T15:16:45.564Z,97810.44
2022-12-26T15:19:37.881Z,97812.27
2022-12-26T15:22:28.523Z,97815.34
2022-12-26T15:25:27.762Z,97813.29
2022-12-26T15:28:01.718Z,97812.45
2022-12-26T15:30:47.010Z,97816.02
2022-12-26T15:33:24.899Z,97823.39
2022-12-26T15:36:22.111Z,97826.80
2022-12-26T15:39:03.183Z,97819.63
2022-12-26T15:41:47.331Z,97812.74
2022-12-26T15:44:27.408Z,97810.70
2022-12-26T15:47:01.202Z,97811.21
2022-12-26T15:49:50.598Z,97805.44
2022-12-26T15:52:24.221Z,97797.84
2022-12-26T15:55:01.181Z,97790.24
2022-12-26T15:58:21.532Z,97796.37
2022-12-26T16:00:52.683Z,97804.32
2022-12-26T16:03:37.377Z,97804.13
2022-12-26T16:06:16.066Z,97798.46
2022-12-26T16:08:58.767Z,97798.56
2022-12-26T16:11:45.273Z,97800.07
2022-12-26T16:14:27.572Z,97800.58
2022-12-26T16:17:15.304Z,97804.42
2022-12-26T16:19:46.159Z,97801.63
2022-12-26T16:22:48.609Z,97800.31
2022-12-26T16:25:22.972Z,97802.36
2022-12-26T16:27:57.411Z,97803.55
2022-12-26T16:30:28.783Z,97803.34
2022-12-26T16:32:57.832Z,97800.82
2022-12-26T16:35:29.726Z,97807.02
2022-12-26T16:38:00.583Z,97801.63
2022-12-26T16:40:31.962Z,97803.58
2022-12-26T16:43:02.951Z,97806.61
2022-12-26T16:45:37.878Z,97805.59
2022-12-26T16:48:12.465Z,97804.48
2022-12-26T16:50:52.386Z,97802.06
2022-12-26T16:53:24.380Z,97798.07
2022-12-26T16:55:57.468Z,97793.45
2022-12-26T16:58:30.294Z,97790.25
2022-12-26T17:01:06.356Z,97792.46
2022-12-26T17:03:55.623Z,97789.23
2022-12-26T17:06:32.169Z,97792.77
2022-12-26T17:09:07.142Z,97797.35
2022-12-26T17:11:37.950Z,97799.02
2022-12-26T17:14:17.334Z,97801.23
2022-12-26T17:16:45.159Z,97803.45
2022-12-26T17:19:21.589Z,97805.89
2022-12-26T17:22:15.598Z,97800.53
2022-12-26T17:24:45.620Z,97799.60
2022-12-26T17:27:21.091Z,97801.09
2022-12-26T17:29:54.322Z,97802.61
2022-12-26T17:32:44.627Z,97808.42
2022-12-26T17:35:14.397Z,97809.38
2022-12-26T17:37:43.079Z,97811.32
2022-12-26T17:40:13.927Z,97810.45
2022-12-26T17:42:45.764Z,97807.75
2022-12-26T17:45:27.933Z,97802.63
2022-12-26T17:47:57.177Z,97802.14
2022-12-26T17:50:37.112Z,97807.23
2022-12-26T17:53:22.852Z,97804.13
2022-12-26T17:55:52.220Z,97802.10
2022-12-26T17:58:20.812Z,97793.71
2022-12-26T18:00:49.166Z,97790.42
2022-12-26T18:03:17.901Z,97786.45
2022-12-26T18:05:47.441Z,97782.43
2022-12-26T18:08:33.667Z,97778.60
2022-12-26T18:11:10.419Z,97774.58
2022-12-26T18:13:38.744Z,97783.23
2022-12-26T18:16:07.650Z,97790.48
2022-12-26T18:18:40.580Z,97790.56
2022-12-26T18:21:11.271Z,97786.19
2022-12-26T18:23:39.924Z,97781.41
2022-12-26T18:26:18.172Z,97780.73
2022-12-26T18:28:47.526Z,97783.25
2022-12-26T18:31:16.738Z,97777.64
2022-12-26T18:33:44.752Z,97773.79
2022-12-26T18:36:14.740Z,97771.82
2022-12-26T18:38:43.404Z,97770.64
2022-12-26T18:41:16.683Z,97774.49
2022-12-26T18:43:45.283Z,97773.70
2022-12-26T18:46:17.460Z,97772.27
2022-12-26T18:48:46.262Z,97769.48
2022-12-26T18:51:14.333Z,97766.46
2022-12-26T18:53:42.279Z,97766.08
2022-12-26T18:56:22.210Z,97766.52
2022-12-26T18:58:57.516Z,97766.19
2022-12-26T19:01:26.469Z,97762.96
2022-12-26T19:03:55.314Z,97757.52
2022-12-26T19:06:26.891Z,97759.48
2022-12-26T19:08:55.316Z,97762.99
2022-12-26T19:11:23.386Z,97760.77
2022-12-26T19:13:51.366Z,97757.13
2022-12-26T19:16:19.373Z,97759.34
2022-12-26T19:18:47.304Z,97753.88
2022-12-26T19:21:16.614Z,97752.51
2022-12-26T19:23:47.914Z,97757.54
2022-12-26T19:26:17.777Z,97747.30
2022-12-26T19:28:49.954Z,97745.39
2022-12-26T19:31:17.987Z,97744.02
2022-12-26T19:33:45.881Z,97744.28
2022-12-26T19:36:14.633Z,97744.89
2022-12-26T19:38:42.605Z,97744.54
2022-12-26T19:41:12.835Z,97742.08
2022-12-26T19:43:41.181Z,97730.20
2022-12-26T19:46:12.391Z,97725.43
2022-12-26T19:48:40.394Z,97722.45
2022-12-26T19:51:13.705Z,97727.50
2022-12-26T19:53:43.446Z,97725.55
2022-12-26T19:56:24.148Z,97722.41
2022-12-26T19:58:56.474Z,97722.42
2022-12-26T20:01:31.759Z,97720.17
2022-12-26T20:04:04.880Z,97717.54
2022-12-26T20:06:35.451Z,97720.10
2022-12-26T20:09:09.995Z,97717.27
2022-12-26T20:11:41.229Z,97719.29
2022-12-26T20:14:12.931Z,97712.03
2022-12-26T20:19:28.947Z,97717.09
2022-12-26T20:21:56.896Z,97721.41
2022-12-26T20:24:26.025Z,97728.32
2022-12-26T20:26:54.386Z,97723.03
2022-12-26T20:29:22.452Z,97721.59
2022-12-26T20:31:50.649Z,97718.98
2022-12-26T20:34:19.318Z,97717.16
2022-12-26T20:36:47.248Z,97717.56
2022-12-26T20:39:17.619Z,97720.88
2022-12-26T20:41:46.005Z,97712.85
2022-12-26T20:44:15.848Z,97711.07
2022-12-26T20:46:45.397Z,97710.11
2022-12-26T20:49:13.951Z,97713.39
2022-12-26T20:51:44.598Z,97713.16
2022-12-26T20:54:14.923Z,97718.00
2022-12-26T20:56:43.576Z,97719.36
2022-12-26T20:59:11.893Z,97719.17
2022-12-26T21:01:40.600Z,97715.26
2022-12-26T21:04:10.977Z,97708.02
2022-12-26T21:06:40.951Z,97705.80
2022-12-26T21:09:08.783Z,97705.27
2022-12-26T21:11:38.766Z,97704.52
2022-12-26T21:14:11.153Z,97705.76
2022-12-26T21:16:59.101Z,97705.45
2022-12-26T21:19:29.548Z,97702.80
2022-12-26T21:21:57.611Z,97703.70
2022-12-26T21:24:31.316Z,97700.31
2022-12-26T21:26:59.746Z,97697.45
2022-12-26T21:29:30.233Z,97698.73
2022-12-26T21:31:59.073Z,97698.52
2022-12-26T21:34:29.825Z,97700.98
2022-12-26T21:37:17.761Z,97700.32
2022-12-26T21:39:47.169Z,97705.23
2022-12-26T21:42:15.157Z,97713.63
2022-12-26T21:44:43.100Z,97717.80
2022-12-26T21:47:11.086Z,97709.95
2022-12-26T21:49:39.029Z,97701.57
2022-12-26T21:52:07.667Z,97696.51
2022-12-26T21:54:54.234Z,97686.57
2022-12-26T21:57:23.098Z,97682.41
2022-12-26T21:59:56.725Z,97682.61
2022-12-26T22:02:52.205Z,97670.90
2022-12-26T22:05:26.712Z,97666.04
2022-12-26T22:07:55.653Z,97664.17
2022-12-26T22:10:44.175Z,97650.70
2022-12-26T22:13:12.055Z,97643.11
2022-12-26T22:16:11.789Z,97638.84
2022-12-26T22:18:46.203Z,97642.96
2022-12-26T22:21:20.892Z,97637.04
2022-12-26T22:23:50.592Z,97634.74
2022-12-26T22:26:20.546Z,97635.56
2022-12-26T22:28:48.609Z,97637.83
2022-12-26T22:31:21.478Z,97637.49
2022-12-26T22:33:58.571Z,97644.80
2022-12-26T22:36:27.517Z,97645.76
2022-12-26T22:38:55.875Z,97640.98
2022-12-26T22:41:24.689Z,97640.39
2022-12-26T22:43:52.476Z,97638.82
2022-12-26T22:46:20.418Z,97635.85
2022-12-26T22:48:48.308Z,97641.96
2022-12-26T22:51:18.825Z,97637.44
2022-12-26T22:53:47.788Z,97632.88
2022-12-26T22:56:16.147Z,97633.06
2022-12-26T22:58:44.149Z,97636.40
2022-12-26T23:01:17.338Z,97637.91
2022-12-26T23:03:46.454Z,97642.46
2022-12-26T23:06:20.462Z,97642.54
2022-12-26T23:08:48.903Z,97637.04
2022-12-26T23:11:17.153Z,97637.59
2022-12-26T23:13:46.025Z,97637.26
2022-12-26T23:16:32.485Z,97645.14
2022-12-26T23:19:23.728Z,97647.60
2022-12-26T23:21:51.836Z,97646.59
2022-12-26T23:24:23.163Z,97649.20
2022-12-26T23:26:55.992Z,97651.20
2022-12-26T23:29:43.172Z,97651.19
2022-12-26T23:32:11.121Z,97648.24
2022-12-26T23:34:39.033Z,97652.64
2022-12-26T23:37:06.908Z,97651.88
2022-12-26T23:39:35.658Z,97647.23
2022-12-26T23:42:03.520Z,97638.52
2022-12-26T23:44:31.448Z,97633.73
2022-12-26T23:46:59.251Z,97623.73
2022-12-26T23:49:27.186Z,97626.70
2022-12-26T23:51:55.137Z,97629.52
2022-12-26T23:54:23.094Z,97626.01
2022-12-26T23:56:50.922Z,97627.48
2022-12-26T23:59:19.395Z,97627.69
